sensor_id;sensor_type;location;lat;lon;timestamp;P1;durP1;ratioP1;P2;durP2;ratioP2
14251;SDS011;7210;51.502;10.722;2024-03-02T00:00:54;21.30;;;17.97;;
14251;SDS011;7210;51.502;10.722;2024-03-02T00:03:21;23.03;;;18.03;;
14251;SDS011;7210;51.502;10.722;2024-03-02T00:05:48;25.10;;;18.77;;
14251;SDS011;7210;51.502;10.722;2024-03-02T00:08:19;21.50;;;18.03;;
14251;SDS011;7210;51.502;10.722;2024-03-02T00:10:52;23.80;;;19.10;;
14251;SDS011;7210;51.502;10.722;2024-03-02T00:13:25;25.93;;;19.77;;
14251;SDS011;7210;51.502;10.722;2024-03-02T00:15:53;25.40;;;18.87;;
14251;SDS011;7210;51.502;10.722;2024-03-02T00:18:25;24.87;;;18.97;;
14251;SDS011;7210;51.502;10.722;2024-03-02T00:20:56;20.77;;;17.67;;
14251;SDS011;7210;51.502;10.722;2024-03-02T00:23:27;25.70;;;19.77;;
14251;SDS011;7210;51.502;10.722;2024-03-02T00:25:57;24.30;;;19.17;;
14251;SDS011;7210;51.502;10.722;2024-03-02T00:28:27;23.27;;;19.33;;
14251;SDS011;7210;51.502;10.722;2024-03-02T00:30:59;21.97;;;18.33;;
14251;SDS011;7210;51.502;10.722;2024-03-02T00:33:31;23.67;;;19.43;;
14251;SDS011;7210;51.502;10.722;2024-03-02T00:36:01;22.50;;;19.20;;
14251;SDS011;7210;51.502;10.722;2024-03-02T00:38:29;22.60;;;19.23;;
14251;SDS011;7210;51.502;10.722;2024-03-02T00:40:58;26.03;;;20.30;;
14251;SDS011;7210;51.502;10.722;2024-03-02T00:46:23;22.90;;;19.10;;
14251;SDS011;7210;51.502;10.722;2024-03-02T00:48:51;23.80;;;19.40;;
14251;SDS011;7210;51.502;10.722;2024-03-02T00:51:21;22.67;;;18.97;;
14251;SDS011;7210;51.502;10.722;2024-03-02T00:53:51;22.87;;;19.90;;
14251;SDS011;7210;51.502;10.722;2024-03-02T00:56:21;22.73;;;18.93;;
14251;SDS011;7210;51.502;10.722;2024-03-02T00:58:51;25.10;;;19.87;;
14251;SDS011;7210;51.502;10.722;2024-03-02T01:01:18;22.13;;;18.13;;
14251;SDS011;7210;51.502;10.722;2024-03-02T01:03:46;23.40;;;19.80;;
14251;SDS011;7210;51.502;10.722;2024-03-02T01:06:14;24.00;;;19.90;;
14251;SDS011;7210;51.502;10.722;2024-03-02T01:08:41;26.83;;;20.63;;
14251;SDS011;7210;51.502;10.722;2024-03-02T01:11:09;22.83;;;19.50;;
14251;SDS011;7210;51.502;10.722;2024-03-02T01:13:36;23.50;;;20.33;;
14251;SDS011;7210;51.502;10.722;2024-03-02T01:16:05;23.37;;;19.17;;
14251;SDS011;7210;51.502;10.722;2024-03-02T01:18:32;23.53;;;18.07;;
14251;SDS011;7210;51.502;10.722;2024-03-02T01:20:59;22.63;;;19.07;;
14251;SDS011;7210;51.502;10.722;2024-03-02T01:23:26;23.87;;;19.17;;
14251;SDS011;7210;51.502;10.722;2024-03-02T01:25:53;25.80;;;19.60;;
14251;SDS011;7210;51.502;10.722;2024-03-02T01:28:21;21.60;;;18.40;;
14251;SDS011;7210;51.502;10.722;2024-03-02T01:30:48;20.13;;;17.73;;
14251;SDS011;7210;51.502;10.722;2024-03-02T01:33:17;24.07;;;18.93;;
14251;SDS011;7210;51.502;10.722;2024-03-02T01:35:46;24.97;;;19.37;;
14251;SDS011;7210;51.502;10.722;2024-03-02T01:38:16;22.30;;;19.37;;
14251;SDS011;7210;51.502;10.722;2024-03-02T01:40:43;22.47;;;18.77;;
14251;SDS011;7210;51.502;10.722;2024-03-02T01:43:10;20.37;;;17.57;;
14251;SDS011;7210;51.502;10.722;2024-03-02T01:45:38;24.17;;;17.73;;
14251;SDS011;7210;51.502;10.722;2024-03-02T01:48:05;25.27;;;18.77;;
14251;SDS011;7210;51.502;10.722;2024-03-02T01:50:35;25.37;;;18.83;;
14251;SDS011;7210;51.502;10.722;2024-03-02T01:53:02;21.77;;;18.57;;
14251;SDS011;7210;51.502;10.722;2024-03-02T01:55:30;22.43;;;18.73;;
14251;SDS011;7210;51.502;10.722;2024-03-02T01:57:58;22.13;;;18.57;;
14251;SDS011;7210;51.502;10.722;2024-03-02T02:00:25;21.83;;;18.60;;
14251;SDS011;7210;51.502;10.722;2024-03-02T02:02:53;21.37;;;18.93;;
14251;SDS011;7210;51.502;10.722;2024-03-02T02:05:20;23.33;;;19.27;;
14251;SDS011;7210;51.502;10.722;2024-03-02T02:07:49;21.83;;;18.63;;
14251;SDS011;7210;51.502;10.722;2024-03-02T02:10:16;20.37;;;16.83;;
14251;SDS011;7210;51.502;10.722;2024-03-02T02:12:44;21.37;;;17.67;;
14251;SDS011;7210;51.502;10.722;2024-03-02T02:15:24;18.93;;;16.33;;
14251;SDS011;7210;51.502;10.722;2024-03-02T02:17:52;20.27;;;16.63;;
14251;SDS011;7210;51.502;10.722;2024-03-02T02:20:20;20.07;;;17.07;;
14251;SDS011;7210;51.502;10.722;2024-03-02T02:23:00;22.63;;;18.37;;
14251;SDS011;7210;51.502;10.722;2024-03-02T02:25:29;20.20;;;17.80;;
14251;SDS011;7210;51.502;10.722;2024-03-02T02:27:56;20.27;;;17.63;;
14251;SDS011;7210;51.502;10.722;2024-03-02T02:30:24;22.10;;;19.30;;
14251;SDS011;7210;51.502;10.722;2024-03-02T02:32:53;23.93;;;17.63;;
14251;SDS011;7210;51.502;10.722;2024-03-02T02:35:21;21.70;;;17.37;;
14251;SDS011;7210;51.502;10.722;2024-03-02T02:37:49;25.93;;;17.93;;
14251;SDS011;7210;51.502;10.722;2024-03-02T02:40:19;22.50;;;18.57;;
14251;SDS011;7210;51.502;10.722;2024-03-02T02:42:47;19.00;;;16.20;;
14251;SDS011;7210;51.502;10.722;2024-03-02T02:45:14;19.53;;;16.53;;
14251;SDS011;7210;51.502;10.722;2024-03-02T02:47:43;20.27;;;16.97;;
14251;SDS011;7210;51.502;10.722;2024-03-02T02:50:11;20.87;;;17.20;;
14251;SDS011;7210;51.502;10.722;2024-03-02T02:52:40;23.77;;;17.13;;
14251;SDS011;7210;51.502;10.722;2024-03-02T02:55:09;20.93;;;15.80;;
14251;SDS011;7210;51.502;10.722;2024-03-02T02:57:40;20.97;;;16.83;;
14251;SDS011;7210;51.502;10.722;2024-03-02T03:00:09;20.40;;;16.57;;
14251;SDS011;7210;51.502;10.722;2024-03-02T03:02:40;20.63;;;16.23;;
14251;SDS011;7210;51.502;10.722;2024-03-02T03:05:08;21.03;;;15.83;;
14251;SDS011;7210;51.502;10.722;2024-03-02T03:07:36;22.10;;;16.70;;
14251;SDS011;7210;51.502;10.722;2024-03-02T03:10:10;19.83;;;15.73;;
14251;SDS011;7210;51.502;10.722;2024-03-02T03:12:39;19.97;;;15.27;;
14251;SDS011;7210;51.502;10.722;2024-03-02T03:15:08;23.10;;;17.00;;
14251;SDS011;7210;51.502;10.722;2024-03-02T03:17:36;19.37;;;15.60;;
14251;SDS011;7210;51.502;10.722;2024-03-02T03:20:04;20.53;;;17.03;;
14251;SDS011;7210;51.502;10.722;2024-03-02T03:22:34;20.70;;;17.03;;
14251;SDS011;7210;51.502;10.722;2024-03-02T03:25:02;21.60;;;17.33;;
14251;SDS011;7210;51.502;10.722;2024-03-02T03:27:29;18.17;;;16.17;;
14251;SDS011;7210;51.502;10.722;2024-03-02T03:29:59;19.90;;;16.20;;
14251;SDS011;7210;51.502;10.722;2024-03-02T03:32:26;20.03;;;17.43;;
14251;SDS011;7210;51.502;10.722;2024-03-02T03:34:53;20.13;;;16.63;;
14251;SDS011;7210;51.502;10.722;2024-03-02T03:37:20;20.93;;;16.50;;
14251;SDS011;7210;51.502;10.722;2024-03-02T03:39:48;19.63;;;16.33;;
14251;SDS011;7210;51.502;10.722;2024-03-02T03:42:15;20.00;;;16.70;;
14251;SDS011;7210;51.502;10.722;2024-03-02T03:44:42;22.13;;;16.13;;
14251;SDS011;7210;51.502;10.722;2024-03-02T03:47:10;18.23;;;15.27;;
14251;SDS011;7210;51.502;10.722;2024-03-02T03:49:37;17.53;;;14.80;;
14251;SDS011;7210;51.502;10.722;2024-03-02T03:52:04;16.97;;;14.83;;
14251;SDS011;7210;51.502;10.722;2024-03-02T03:54:31;18.47;;;14.90;;
14251;SDS011;7210;51.502;10.722;2024-03-02T03:56:59;18.77;;;15.83;;
14251;SDS011;7210;51.502;10.722;2024-03-02T03:59:26;16.57;;;14.77;;
14251;SDS011;7210;51.502;10.722;2024-03-02T04:01:53;18.00;;;14.77;;
14251;SDS011;7210;51.502;10.722;2024-03-02T04:04:21;20.00;;;15.90;;
14251;SDS011;7210;51.502;10.722;2024-03-02T04:06:48;18.10;;;14.90;;
14251;SDS011;7210;51.502;10.722;2024-03-02T04:09:15;18.37;;;15.20;;
14251;SDS011;7210;51.502;10.722;2024-03-02T04:11:42;19.20;;;15.03;;
14251;SDS011;7210;51.502;10.722;2024-03-02T04:14:09;19.77;;;15.27;;
14251;SDS011;7210;51.502;10.722;2024-03-02T04:16:37;17.20;;;15.40;;
14251;SDS011;7210;51.502;10.722;2024-03-02T04:19:05;20.13;;;15.50;;
14251;SDS011;7210;51.502;10.722;2024-03-02T04:21:32;18.83;;;15.63;;
14251;SDS011;7210;51.502;10.722;2024-03-02T04:23:59;20.10;;;16.70;;
14251;SDS011;7210;51.502;10.722;2024-03-02T04:26:26;20.33;;;16.93;;
14251;SDS011;7210;51.502;10.722;2024-03-02T04:28:53;23.57;;;18.33;;
14251;SDS011;7210;51.502;10.722;2024-03-02T04:31:20;24.87;;;18.90;;
14251;SDS011;7210;51.502;10.722;2024-03-02T04:33:48;24.57;;;18.53;;
14251;SDS011;7210;51.502;10.722;2024-03-02T04:36:15;21.30;;;18.10;;
14251;SDS011;7210;51.502;10.722;2024-03-02T04:38:43;23.17;;;17.73;;
14251;SDS011;7210;51.502;10.722;2024-03-02T04:41:10;24.57;;;18.30;;
14251;SDS011;7210;51.502;10.722;2024-03-02T04:43:37;23.30;;;17.37;;
14251;SDS011;7210;51.502;10.722;2024-03-02T04:46:05;26.30;;;19.40;;
14251;SDS011;7210;51.502;10.722;2024-03-02T04:48:33;24.27;;;18.53;;
14251;SDS011;7210;51.502;10.722;2024-03-02T04:51:00;24.33;;;19.10;;
14251;SDS011;7210;51.502;10.722;2024-03-02T04:53:27;26.40;;;19.97;;
14251;SDS011;7210;51.502;10.722;2024-03-02T04:55:56;28.80;;;20.30;;
14251;SDS011;7210;51.502;10.722;2024-03-02T04:58:41;23.20;;;17.80;;
14251;SDS011;7210;51.502;10.722;2024-03-02T05:01:08;24.40;;;18.43;;
14251;SDS011;7210;51.502;10.722;2024-03-02T05:03:35;24.73;;;19.40;;
14251;SDS011;7210;51.502;10.722;2024-03-02T05:06:03;23.87;;;18.97;;
14251;SDS011;7210;51.502;10.722;2024-03-02T05:08:30;27.00;;;19.60;;
14251;SDS011;7210;51.502;10.722;2024-03-02T05:10:59;24.90;;;19.17;;
14251;SDS011;7210;51.502;10.722;2024-03-02T05:13:46;27.57;;;19.43;;
14251;SDS011;7210;51.502;10.722;2024-03-02T05:16:12;28.23;;;19.63;;
14251;SDS011;7210;51.502;10.722;2024-03-02T05:18:40;28.67;;;21.43;;
14251;SDS011;7210;51.502;10.722;2024-03-02T05:21:07;30.90;;;22.50;;
14251;SDS011;7210;51.502;10.722;2024-03-02T05:23:34;33.30;;;22.93;;
14251;SDS011;7210;51.502;10.722;2024-03-02T05:26:03;30.33;;;22.87;;
14251;SDS011;7210;51.502;10.722;2024-03-02T05:28:31;34.33;;;23.10;;
14251;SDS011;7210;51.502;10.722;2024-03-02T05:30:58;33.50;;;22.83;;
14251;SDS011;7210;51.502;10.722;2024-03-02T05:33:25;33.50;;;23.23;;
14251;SDS011;7210;51.502;10.722;2024-03-02T05:35:52;34.27;;;24.23;;
14251;SDS011;7210;51.502;10.722;2024-03-02T05:38:19;36.90;;;22.70;;
14251;SDS011;7210;51.502;10.722;2024-03-02T05:40:47;31.23;;;21.70;;
14251;SDS011;7210;51.502;10.722;2024-03-02T05:43:15;31.00;;;22.87;;
14251;SDS011;7210;51.502;10.722;2024-03-02T05:45:43;33.87;;;24.97;;
14251;SDS011;7210;51.502;10.722;2024-03-02T05:48:10;32.77;;;23.23;;
14251;SDS011;7210;51.502;10.722;2024-03-02T05:50:37;36.33;;;24.13;;
14251;SDS011;7210;51.502;10.722;2024-03-02T05:53:05;35.80;;;24.13;;
14251;SDS011;7210;51.502;10.722;2024-03-02T05:55:32;33.80;;;23.73;;
14251;SDS011;7210;51.502;10.722;2024-03-02T05:58:00;35.33;;;25.60;;
14251;SDS011;7210;51.502;10.722;2024-03-02T06:00:44;32.87;;;24.13;;
14251;SDS011;7210;51.502;10.722;2024-03-02T06:03:11;31.93;;;23.67;;
14251;SDS011;7210;51.502;10.722;2024-03-02T06:05:38;31.80;;;23.90;;
14251;SDS011;7210;51.502;10.722;2024-03-02T06:08:06;33.23;;;25.10;;
14251;SDS011;7210;51.502;10.722;2024-03-02T06:10:33;34.13;;;24.30;;
14251;SDS011;7210;51.502;10.722;2024-03-02T06:13:00;30.87;;;23.53;;
14251;SDS011;7210;51.502;10.722;2024-03-02T06:15:27;30.43;;;23.13;;
14251;SDS011;7210;51.502;10.722;2024-03-02T06:17:56;30.97;;;23.33;;
14251;SDS011;7210;51.502;10.722;2024-03-02T06:20:23;33.70;;;24.67;;
14251;SDS011;7210;51.502;10.722;2024-03-02T06:22:58;32.13;;;23.90;;
14251;SDS011;7210;51.502;10.722;2024-03-02T06:25:28;35.57;;;26.73;;
14251;SDS011;7210;51.502;10.722;2024-03-02T06:27:55;34.30;;;25.13;;
14251;SDS011;7210;51.502;10.722;2024-03-02T06:30:22;34.97;;;25.77;;
14251;SDS011;7210;51.502;10.722;2024-03-02T06:32:49;32.93;;;24.37;;
14251;SDS011;7210;51.502;10.722;2024-03-02T06:35:24;33.13;;;25.90;;
14251;SDS011;7210;51.502;10.722;2024-03-02T06:37:52;34.93;;;24.77;;
14251;SDS011;7210;51.502;10.722;2024-03-02T06:40:19;36.63;;;26.43;;
14251;SDS011;7210;51.502;10.722;2024-03-02T06:42:47;37.30;;;27.50;;
14251;SDS011;7210;51.502;10.722;2024-03-02T06:45:14;35.07;;;27.80;;
14251;SDS011;7210;51.502;10.722;2024-03-02T06:47:41;36.43;;;26.97;;
14251;SDS011;7210;51.502;10.722;2024-03-02T06:50:08;39.93;;;27.77;;
14251;SDS011;7210;51.502;10.722;2024-03-02T06:52:37;34.87;;;26.47;;
14251;SDS011;7210;51.502;10.722;2024-03-02T06:55:05;34.70;;;25.53;;
14251;SDS011;7210;51.502;10.722;2024-03-02T06:57:33;36.90;;;25.60;;
14251;SDS011;7210;51.502;10.722;2024-03-02T07:00:00;32.03;;;23.87;;
14251;SDS011;7210;51.502;10.722;2024-03-02T07:02:30;35.70;;;26.80;;
14251;SDS011;7210;51.502;10.722;2024-03-02T07:04:57;35.97;;;26.37;;
14251;SDS011;7210;51.502;10.722;2024-03-02T07:07:24;36.27;;;27.17;;
14251;SDS011;7210;51.502;10.722;2024-03-02T07:09:53;34.40;;;25.70;;
14251;SDS011;7210;51.502;10.722;2024-03-02T07:12:20;40.07;;;27.23;;
14251;SDS011;7210;51.502;10.722;2024-03-02T07:14:47;39.07;;;28.43;;
14251;SDS011;7210;51.502;10.722;2024-03-02T07:17:36;39.27;;;28.27;;
14251;SDS011;7210;51.502;10.722;2024-03-02T07:20:05;37.80;;;27.57;;
14251;SDS011;7210;51.502;10.722;2024-03-02T07:22:34;38.13;;;27.07;;
14251;SDS011;7210;51.502;10.722;2024-03-02T07:25:04;38.30;;;26.87;;
14251;SDS011;7210;51.502;10.722;2024-03-02T07:27:33;37.13;;;25.97;;
14251;SDS011;7210;51.502;10.722;2024-03-02T07:30:01;34.57;;;26.33;;
14251;SDS011;7210;51.502;10.722;2024-03-02T07:32:29;34.30;;;26.00;;
14251;SDS011;7210;51.502;10.722;2024-03-02T07:34:57;37.43;;;24.90;;
14251;SDS011;7210;51.502;10.722;2024-03-02T07:37:24;35.97;;;26.87;;
14251;SDS011;7210;51.502;10.722;2024-03-02T07:39:51;34.27;;;25.50;;
14251;SDS011;7210;51.502;10.722;2024-03-02T07:42:20;33.87;;;25.30;;
14251;SDS011;7210;51.502;10.722;2024-03-02T07:44:52;34.87;;;24.87;;
14251;SDS011;7210;51.502;10.722;2024-03-02T07:47:19;33.33;;;24.13;;
14251;SDS011;7210;51.502;10.722;2024-03-02T07:49:52;39.67;;;26.30;;
14251;SDS011;7210;51.502;10.722;2024-03-02T07:52:19;34.83;;;25.03;;
14251;SDS011;7210;51.502;10.722;2024-03-02T07:54:46;35.77;;;26.30;;
14251;SDS011;7210;51.502;10.722;2024-03-02T07:57:13;33.67;;;25.13;;
14251;SDS011;7210;51.502;10.722;2024-03-02T07:59:42;35.30;;;25.90;;
14251;SDS011;7210;51.502;10.722;2024-03-02T08:02:09;34.40;;;26.00;;
14251;SDS011;7210;51.502;10.722;2024-03-02T08:04:40;32.90;;;26.07;;
14251;SDS011;7210;51.502;10.722;2024-03-02T08:07:10;31.90;;;24.50;;
14251;SDS011;7210;51.502;10.722;2024-03-02T08:09:37;32.27;;;25.67;;
14251;SDS011;7210;51.502;10.722;2024-03-02T08:12:10;32.30;;;25.53;;
14251;SDS011;7210;51.502;10.722;2024-03-02T08:14:37;37.83;;;25.37;;
14251;SDS011;7210;51.502;10.722;2024-03-02T08:17:06;27.27;;;23.27;;
14251;SDS011;7210;51.502;10.722;2024-03-02T08:19:35;30.30;;;24.80;;
14251;SDS011;7210;51.502;10.722;2024-03-02T08:22:03;32.40;;;24.20;;
14251;SDS011;7210;51.502;10.722;2024-03-02T08:24:30;31.43;;;24.67;;
14251;SDS011;7210;51.502;10.722;2024-03-02T08:26:57;33.23;;;25.40;;
14251;SDS011;7210;51.502;10.722;2024-03-02T08:29:25;32.20;;;24.93;;
14251;SDS011;7210;51.502;10.722;2024-03-02T08:31:53;29.93;;;24.10;;
14251;SDS011;7210;51.502;10.722;2024-03-02T08:34:22;28.67;;;24.30;;
14251;SDS011;7210;51.502;10.722;2024-03-02T08:36:49;28.50;;;23.97;;
14251;SDS011;7210;51.502;10.722;2024-03-02T08:39:16;28.27;;;23.00;;
14251;SDS011;7210;51.502;10.722;2024-03-02T08:41:45;29.50;;;24.40;;
14251;SDS011;7210;51.502;10.722;2024-03-02T08:44:13;27.80;;;23.37;;
14251;SDS011;7210;51.502;10.722;2024-03-02T08:46:41;29.50;;;23.17;;
14251;SDS011;7210;51.502;10.722;2024-03-02T08:49:08;32.30;;;22.93;;
14251;SDS011;7210;51.502;10.722;2024-03-02T08:51:42;28.70;;;22.47;;
14251;SDS011;7210;51.502;10.722;2024-03-02T08:54:09;30.67;;;24.13;;
14251;SDS011;7210;51.502;10.722;2024-03-02T08:56:36;30.20;;;23.13;;
14251;SDS011;7210;51.502;10.722;2024-03-02T08:59:03;29.70;;;23.73;;
14251;SDS011;7210;51.502;10.722;2024-03-02T09:01:30;29.00;;;22.93;;
14251;SDS011;7210;51.502;10.722;2024-03-02T09:03:57;26.17;;;21.23;;
14251;SDS011;7210;51.502;10.722;2024-03-02T09:06:24;27.00;;;22.40;;
14251;SDS011;7210;51.502;10.722;2024-03-02T09:08:53;26.60;;;21.63;;
14251;SDS011;7210;51.502;10.722;2024-03-02T09:11:22;27.17;;;21.47;;
14251;SDS011;7210;51.502;10.722;2024-03-02T09:13:50;25.23;;;21.40;;
14251;SDS011;7210;51.502;10.722;2024-03-02T09:16:18;26.67;;;22.47;;
14251;SDS011;7210;51.502;10.722;2024-03-02T09:18:45;26.23;;;21.13;;
14251;SDS011;7210;51.502;10.722;2024-03-02T09:21:12;28.00;;;22.40;;
14251;SDS011;7210;51.502;10.722;2024-03-02T09:23:40;25.70;;;21.93;;
14251;SDS011;7210;51.502;10.722;2024-03-02T09:26:10;26.63;;;21.40;;
14251;SDS011;7210;51.502;10.722;2024-03-02T09:28:37;27.53;;;22.23;;
14251;SDS011;7210;51.502;10.722;2024-03-02T09:31:08;29.40;;;23.00;;
14251;SDS011;7210;51.502;10.722;2024-03-02T09:33:36;25.23;;;21.60;;
14251;SDS011;7210;51.502;10.722;2024-03-02T09:36:04;32.03;;;23.10;;
14251;SDS011;7210;51.502;10.722;2024-03-02T09:38:32;30.13;;;23.00;;
14251;SDS011;7210;51.502;10.722;2024-03-02T09:40:59;28.97;;;22.43;;
14251;SDS011;7210;51.502;10.722;2024-03-02T09:43:28;30.03;;;22.90;;
14251;SDS011;7210;51.502;10.722;2024-03-02T09:45:55;27.13;;;22.57;;
14251;SDS011;7210;51.502;10.722;2024-03-02T09:48:22;31.07;;;23.00;;
14251;SDS011;7210;51.502;10.722;2024-03-02T09:50:49;30.73;;;23.60;;
14251;SDS011;7210;51.502;10.722;2024-03-02T09:53:17;32.87;;;26.53;;
14251;SDS011;7210;51.502;10.722;2024-03-02T09:55:46;29.17;;;24.07;;
14251;SDS011;7210;51.502;10.722;2024-03-02T09:58:16;29.83;;;22.47;;
14251;SDS011;7210;51.502;10.722;2024-03-02T10:00:44;28.87;;;22.67;;
14251;SDS011;7210;51.502;10.722;2024-03-02T10:03:12;27.70;;;22.67;;
14251;SDS011;7210;51.502;10.722;2024-03-02T10:05:39;27.50;;;21.07;;
14251;SDS011;7210;51.502;10.722;2024-03-02T10:08:10;24.33;;;21.53;;
14251;SDS011;7210;51.502;10.722;2024-03-02T10:10:37;30.90;;;21.67;;
14251;SDS011;7210;51.502;10.722;2024-03-02T10:13:08;28.83;;;21.57;;
14251;SDS011;7210;51.502;10.722;2024-03-02T10:15:37;26.23;;;21.97;;
14251;SDS011;7210;51.502;10.722;2024-03-02T10:18:09;26.00;;;21.10;;
14251;SDS011;7210;51.502;10.722;2024-03-02T10:20:38;25.10;;;20.60;;
14251;SDS011;7210;51.502;10.722;2024-03-02T10:23:09;25.30;;;20.67;;
14251;SDS011;7210;51.502;10.722;2024-03-02T10:25:37;22.43;;;19.13;;
14251;SDS011;7210;51.502;10.722;2024-03-02T10:28:10;25.10;;;20.10;;
14251;SDS011;7210;51.502;10.722;2024-03-02T10:30:37;23.07;;;20.53;;
14251;SDS011;7210;51.502;10.722;2024-03-02T10:33:05;26.17;;;20.87;;
14251;SDS011;7210;51.502;10.722;2024-03-02T10:35:34;21.70;;;18.63;;
14251;SDS011;7210;51.502;10.722;2024-03-02T10:38:03;23.23;;;19.40;;
14251;SDS011;7210;51.502;10.722;2024-03-02T10:40:33;21.27;;;17.40;;
14251;SDS011;7210;51.502;10.722;2024-03-02T10:43:00;20.67;;;17.07;;
14251;SDS011;7210;51.502;10.722;2024-03-02T10:45:30;21.27;;;17.70;;
14251;SDS011;7210;51.502;10.722;2024-03-02T10:47:58;22.50;;;18.77;;
14251;SDS011;7210;51.502;10.722;2024-03-02T10:50:27;22.10;;;18.20;;
14251;SDS011;7210;51.502;10.722;2024-03-02T10:52:56;20.67;;;18.27;;
14251;SDS011;7210;51.502;10.722;2024-03-02T10:55:28;22.10;;;18.50;;
14251;SDS011;7210;51.502;10.722;2024-03-02T10:57:55;21.33;;;17.87;;
14251;SDS011;7210;51.502;10.722;2024-03-02T11:00:29;20.30;;;18.00;;
14251;SDS011;7210;51.502;10.722;2024-03-02T11:03:02;20.03;;;17.87;;
14251;SDS011;7210;51.502;10.722;2024-03-02T11:05:36;19.07;;;16.97;;
14251;SDS011;7210;51.502;10.722;2024-03-02T11:08:07;18.07;;;15.90;;
14251;SDS011;7210;51.502;10.722;2024-03-02T11:10:41;17.97;;;16.07;;
14251;SDS011;7210;51.502;10.722;2024-03-02T11:13:18;19.17;;;16.90;;
14251;SDS011;7210;51.502;10.722;2024-03-02T11:15:55;18.63;;;16.60;;
14251;SDS011;7210;51.502;10.722;2024-03-02T11:18:32;19.13;;;16.90;;
14251;SDS011;7210;51.502;10.722;2024-03-02T11:21:00;20.53;;;16.27;;
14251;SDS011;7210;51.502;10.722;2024-03-02T11:23:35;19.30;;;15.53;;
14251;SDS011;7210;51.502;10.722;2024-03-02T11:26:18;20.43;;;17.13;;
14251;SDS011;7210;51.502;10.722;2024-03-02T11:28:46;19.63;;;16.23;;
14251;SDS011;7210;51.502;10.722;2024-03-02T11:31:13;18.53;;;16.03;;
14251;SDS011;7210;51.502;10.722;2024-03-02T11:33:41;17.60;;;15.17;;
14251;SDS011;7210;51.502;10.722;2024-03-02T11:36:08;16.67;;;14.93;;
14251;SDS011;7210;51.502;10.722;2024-03-02T11:38:37;17.17;;;15.27;;
14251;SDS011;7210;51.502;10.722;2024-03-02T11:41:07;16.97;;;15.17;;
14251;SDS011;7210;51.502;10.722;2024-03-02T11:43:37;16.93;;;14.87;;
14251;SDS011;7210;51.502;10.722;2024-03-02T11:46:05;17.23;;;15.33;;
14251;SDS011;7210;51.502;10.722;2024-03-02T11:48:34;16.47;;;14.67;;
14251;SDS011;7210;51.502;10.722;2024-03-02T11:51:03;15.90;;;13.43;;
14251;SDS011;7210;51.502;10.722;2024-03-02T11:53:43;15.63;;;14.03;;
14251;SDS011;7210;51.502;10.722;2024-03-02T11:56:16;15.87;;;13.57;;
14251;SDS011;7210;51.502;10.722;2024-03-02T11:58:46;15.80;;;14.07;;
14251;SDS011;7210;51.502;10.722;2024-03-02T12:01:14;17.10;;;14.13;;
14251;SDS011;7210;51.502;10.722;2024-03-02T12:03:46;14.80;;;13.30;;
14251;SDS011;7210;51.502;10.722;2024-03-02T12:06:14;13.83;;;12.43;;
14251;SDS011;7210;51.502;10.722;2024-03-02T12:08:45;11.37;;;10.17;;
14251;SDS011;7210;51.502;10.722;2024-03-02T12:11:13;12.10;;;10.50;;
14251;SDS011;7210;51.502;10.722;2024-03-02T12:13:40;12.07;;;10.83;;
14251;SDS011;7210;51.502;10.722;2024-03-02T12:16:10;12.33;;;10.53;;
14251;SDS011;7210;51.502;10.722;2024-03-02T12:18:37;11.30;;;9.93;;
14251;SDS011;7210;51.502;10.722;2024-03-02T12:21:05;12.43;;;11.13;;
14251;SDS011;7210;51.502;10.722;2024-03-02T12:23:34;12.43;;;10.37;;
14251;SDS011;7210;51.502;10.722;2024-03-02T12:26:02;12.20;;;11.00;;
14251;SDS011;7210;51.502;10.722;2024-03-02T12:28:30;12.40;;;11.10;;
14251;SDS011;7210;51.502;10.722;2024-03-02T12:30:59;12.83;;;10.90;;
14251;SDS011;7210;51.502;10.722;2024-03-02T12:33:28;11.80;;;10.57;;
14251;SDS011;7210;51.502;10.722;2024-03-02T12:35:56;11.13;;;10.03;;
14251;SDS011;7210;51.502;10.722;2024-03-02T12:38:23;12.40;;;11.10;;
14251;SDS011;7210;51.502;10.722;2024-03-02T12:40:51;11.70;;;10.33;;
14251;SDS011;7210;51.502;10.722;2024-03-02T12:43:20;11.07;;;9.97;;
14251;SDS011;7210;51.502;10.722;2024-03-02T12:45:48;12.80;;;10.37;;
14251;SDS011;7210;51.502;10.722;2024-03-02T12:48:15;12.80;;;10.60;;
14251;SDS011;7210;51.502;10.722;2024-03-02T12:50:43;12.23;;;11.03;;
14251;SDS011;7210;51.502;10.722;2024-03-02T12:53:14;11.57;;;10.37;;
14251;SDS011;7210;51.502;10.722;2024-03-02T12:55:42;11.33;;;10.23;;
14251;SDS011;7210;51.502;10.722;2024-03-02T12:58:16;12.50;;;10.63;;
14251;SDS011;7210;51.502;10.722;2024-03-02T13:00:46;11.63;;;10.43;;
14251;SDS011;7210;51.502;10.722;2024-03-02T13:03:13;12.97;;;9.97;;
14251;SDS011;7210;51.502;10.722;2024-03-02T13:05:48;11.93;;;10.73;;
14251;SDS011;7210;51.502;10.722;2024-03-02T13:08:16;12.37;;;11.07;;
14251;SDS011;7210;51.502;10.722;2024-03-02T13:10:46;11.67;;;10.47;;
14251;SDS011;7210;51.502;10.722;2024-03-02T13:13:13;12.27;;;10.73;;
14251;SDS011;7210;51.502;10.722;2024-03-02T13:15:41;11.43;;;10.33;;
14251;SDS011;7210;51.502;10.722;2024-03-02T13:18:10;10.97;;;9.87;;
14251;SDS011;7210;51.502;10.722;2024-03-02T13:20:37;13.17;;;11.87;;
14251;SDS011;7210;51.502;10.722;2024-03-02T13:23:05;12.97;;;11.57;;
14251;SDS011;7210;51.502;10.722;2024-03-02T13:25:32;13.63;;;11.07;;
14251;SDS011;7210;51.502;10.722;2024-03-02T13:27:59;12.73;;;11.43;;
14251;SDS011;7210;51.502;10.722;2024-03-02T13:30:27;14.43;;;11.73;;
14251;SDS011;7210;51.502;10.722;2024-03-02T13:32:54;12.87;;;11.50;;
14251;SDS011;7210;51.502;10.722;2024-03-02T13:35:23;13.90;;;12.40;;
14251;SDS011;7210;51.502;10.722;2024-03-02T13:37:50;12.83;;;11.63;;
14251;SDS011;7210;51.502;10.722;2024-03-02T13:40:17;12.60;;;11.27;;
14251;SDS011;7210;51.502;10.722;2024-03-02T13:42:52;12.90;;;11.50;;
14251;SDS011;7210;51.502;10.722;2024-03-02T13:45:19;11.73;;;10.63;;
14251;SDS011;7210;51.502;10.722;2024-03-02T13:47:46;11.67;;;10.57;;
14251;SDS011;7210;51.502;10.722;2024-03-02T13:50:14;11.97;;;10.77;;
14251;SDS011;7210;51.502;10.722;2024-03-02T13:52:48;11.57;;;10.37;;
14251;SDS011;7210;51.502;10.722;2024-03-02T13:55:15;11.40;;;10.20;;
14251;SDS011;7210;51.502;10.722;2024-03-02T13:57:52;11.40;;;10.30;;
14251;SDS011;7210;51.502;10.722;2024-03-02T14:00:19;11.67;;;10.30;;
14251;SDS011;7210;51.502;10.722;2024-03-02T14:02:47;11.47;;;10.27;;
14251;SDS011;7210;51.502;10.722;2024-03-02T14:05:15;11.23;;;10.13;;
14251;SDS011;7210;51.502;10.722;2024-03-02T14:07:42;11.23;;;10.03;;
14251;SDS011;7210;51.502;10.722;2024-03-02T14:10:11;11.90;;;10.70;;
14251;SDS011;7210;51.502;10.722;2024-03-02T14:12:38;11.27;;;10.17;;
14251;SDS011;7210;51.502;10.722;2024-03-02T14:15:07;11.60;;;10.03;;
14251;SDS011;7210;51.502;10.722;2024-03-02T14:17:35;11.70;;;10.50;;
14251;SDS011;7210;51.502;10.722;2024-03-02T14:20:02;11.80;;;10.60;;
14251;SDS011;7210;51.502;10.722;2024-03-02T14:22:30;10.80;;;9.70;;
14251;SDS011;7210;51.502;10.722;2024-03-02T14:24:59;12.13;;;10.93;;
14251;SDS011;7210;51.502;10.722;2024-03-02T14:27:27;12.00;;;10.80;;
14251;SDS011;7210;51.502;10.722;2024-03-02T14:29:54;12.70;;;11.40;;
14251;SDS011;7210;51.502;10.722;2024-03-02T14:32:22;12.37;;;11.07;;